sensor_id;sensor_type;location;lat;lon;timestamp;pressure;altitude;pressure_sealevel;temperature;humidity
2268;BME280;11052;43.338;25.502;2023-05-07T00:01:43;100921.50;;;14.41;100.00
2268;BME280;11052;43.338;25.502;2023-05-07T00:04:10;100922.31;;;14.43;100.00
2268;BME280;11052;43.338;25.502;2023-05-07T00:06:37;100929.97;;;14.48;100.00
2268;BME280;11052;43.338;25.502;2023-05-07T00:09:04;100932.88;;;14.39;100.00
2268;BME280;11052;43.338;25.502;2023-05-07T00:11:31;100923.25;;;14.41;100.00
2268;BME280;11052;43.338;25.502;2023-05-07T00:14:00;100921.13;;;14.27;100.00
2268;BME280;11052;43.338;25.502;2023-05-07T00:16:27;100915.44;;;14.16;100.00
2268;BME280;11052;43.338;25.502;2023-05-07T00:18:54;100914.75;;;14.11;100.00
2268;BME280;11052;43.338;25.502;2023-05-07T00:21:21;100914.75;;;14.11;100.00
2268;BME280;11052;43.338;25.502;2023-05-07T00:23:48;100911.28;;;14.10;100.00
2268;BME280;11052;43.338;25.502;2023-05-07T00:26:15;100911.22;;;14.12;100.00
2268;BME280;11052;43.338;25.502;2023-05-07T00:28:43;100907.38;;;13.97;100.00
2268;BME280;11052;43.338;25.502;2023-05-07T00:31:11;100916.81;;;14.01;100.00
2268;BME280;11052;43.338;25.502;2023-05-07T00:33:38;100905.47;;;14.02;100.00
2268;BME280;11052;43.338;25.502;2023-05-07T00:36:06;100902.06;;;14.00;100.00
2268;BME280;11052;43.338;25.502;2023-05-07T00:38:33;100906.44;;;14.00;100.00
2268;BME280;11052;43.338;25.502;2023-05-07T00:41:00;100903.09;;;13.96;100.00
2268;BME280;11052;43.338;25.502;2023-05-07T00:43:27;100903.09;;;13.96;100.00
2268;BME280;11052;43.338;25.502;2023-05-07T00:45:55;100917.13;;;13.92;100.00
2268;BME280;11052;43.338;25.502;2023-05-07T00:48:24;100916.56;;;13.84;100.00
2268;BME280;11052;43.338;25.502;2023-05-07T00:50:51;100914.34;;;13.72;100.00
2268;BME280;11052;43.338;25.502;2023-05-07T00:53:19;100903.38;;;13.62;100.00
2268;BME280;11052;43.338;25.502;2023-05-07T00:55:46;100905.53;;;13.50;100.00
2268;BME280;11052;43.338;25.502;2023-05-07T00:58:13;100910.28;;;13.37;100.00
2268;BME280;11052;43.338;25.502;2023-05-07T01:00:41;100909.69;;;13.29;100.00
2268;BME280;11052;43.338;25.502;2023-05-07T01:03:08;100915.72;;;13.29;100.00
2268;BME280;11052;43.338;25.502;2023-05-07T01:05:36;100904.69;;;13.21;100.00
2268;BME280;11052;43.338;25.502;2023-05-07T01:08:04;100908.13;;;13.23;100.00
2268;BME280;11052;43.338;25.502;2023-05-07T01:10:31;100902.06;;;13.23;100.00
2268;BME280;11052;43.338;25.502;2023-05-07T01:12:59;100905.09;;;13.07;100.00
2268;BME280;11052;43.338;25.502;2023-05-07T01:15:26;100907.16;;;12.98;100.00
2268;BME280;11052;43.338;25.502;2023-05-07T01:17:54;100910.03;;;12.89;100.00
2268;BME280;11052;43.338;25.502;2023-05-07T01:20:22;100911.28;;;12.75;100.00
2268;BME280;11052;43.338;25.502;2023-05-07T01:22:51;100913.47;;;12.60;100.00
2268;BME280;11052;43.338;25.502;2023-05-07T01:25:18;100916.06;;;12.60;100.00
2268;BME280;11052;43.338;25.502;2023-05-07T01:27:46;100915.41;;;12.53;100.00
2268;BME280;11052;43.338;25.502;2023-05-07T01:30:13;100920.28;;;12.33;100.00
2268;BME280;11052;43.338;25.502;2023-05-07T01:32:43;100918.63;;;12.30;100.00
2268;BME280;11052;43.338;25.502;2023-05-07T01:35:20;100916.16;;;12.26;100.00
2268;BME280;11052;43.338;25.502;2023-05-07T01:37:48;100915.47;;;12.19;100.00
2268;BME280;11052;43.338;25.502;2023-05-07T01:40:17;100913.09;;;12.11;100.00
2268;BME280;11052;43.338;25.502;2023-05-07T01:42:45;100909.88;;;12.02;100.00
2268;BME280;11052;43.338;25.502;2023-05-07T01:45:13;100910.97;;;11.93;100.00
2268;BME280;11052;43.338;25.502;2023-05-07T01:47:41;100912.75;;;11.91;100.00
2268;BME280;11052;43.338;25.502;2023-05-07T01:50:09;100905.03;;;11.88;100.00
2268;BME280;11052;43.338;25.502;2023-05-07T01:52:37;100909.66;;;11.77;100.00
2268;BME280;11052;43.338;25.502;2023-05-07T01:55:06;100893.34;;;11.70;100.00
2268;BME280;11052;43.338;25.502;2023-05-07T01:57:35;100892.69;;;11.62;100.00
2268;BME280;11052;43.338;25.502;2023-05-07T02:00:02;100883.38;;;11.54;100.00
2268;BME280;11052;43.338;25.502;2023-05-07T02:02:31;100881.72;;;11.51;100.00
2268;BME280;11052;43.338;25.502;2023-05-07T02:04:59;100874.34;;;11.33;100.00
2268;BME280;11052;43.338;25.502;2023-05-07T02:07:27;100874.59;;;11.24;100.00
2268;BME280;11052;43.338;25.502;2023-05-07T02:09:54;100872.25;;;11.13;100.00
2268;BME280;11052;43.338;25.502;2023-05-07T02:12:22;100876.66;;;11.09;100.00
2268;BME280;11052;43.338;25.502;2023-05-07T02:14:50;100869.03;;;11.03;100.00
2268;BME280;11052;43.338;25.502;2023-05-07T02:17:18;100868.31;;;10.97;100.00
2268;BME280;11052;43.338;25.502;2023-05-07T02:19:45;100873.50;;;10.97;100.00
2268;BME280;11052;43.338;25.502;2023-05-07T02:22:12;100877.84;;;10.96;100.00
2268;BME280;11052;43.338;25.502;2023-05-07T02:24:39;100890.22;;;10.83;100.00
2268;BME280;11052;43.338;25.502;2023-05-07T02:27:06;100889.53;;;10.75;100.00
2268;BME280;11052;43.338;25.502;2023-05-07T02:29:33;100894.00;;;10.67;100.00
2268;BME280;11052;43.338;25.502;2023-05-07T02:32:02;100889.09;;;10.54;100.00
2268;BME280;11052;43.338;25.502;2023-05-07T02:34:29;100891.03;;;10.44;100.00
2268;BME280;11052;43.338;25.502;2023-05-07T02:36:56;100894.63;;;10.38;100.00
2268;BME280;11052;43.338;25.502;2023-05-07T02:39:23;100893.81;;;10.36;100.00
2268;BME280;11052;43.338;25.502;2023-05-07T02:41:50;100888.75;;;10.30;100.00
2268;BME280;11052;43.338;25.502;2023-05-07T02:44:17;100890.50;;;10.28;100.00
2268;BME280;11052;43.338;25.502;2023-05-07T02:46:44;100891.50;;;10.21;100.00
2268;BME280;11052;43.338;25.502;2023-05-07T02:49:12;100896.81;;;10.13;100.00
2268;BME280;11052;43.338;25.502;2023-05-07T02:51:40;100898.50;;;10.14;100.00
2268;BME280;11052;43.338;25.502;2023-05-07T02:54:07;100893.59;;;10.01;100.00
2268;BME280;11052;43.338;25.502;2023-05-07T02:56:34;100890.91;;;10.05;100.00
2268;BME280;11052;43.338;25.502;2023-05-07T02:59:01;100892.69;;;10.02;100.00
2268;BME280;11052;43.338;25.502;2023-05-07T03:01:28;100898.69;;;10.05;100.00
2268;BME280;11052;43.338;25.502;2023-05-07T03:03:55;100896.25;;;9.96;100.00
2268;BME280;11052;43.338;25.502;2023-05-07T03:06:24;100904.84;;;9.98;100.00
2268;BME280;11052;43.338;25.502;2023-05-07T03:08:51;100905.78;;;9.94;100.00
2268;BME280;11052;43.338;25.502;2023-05-07T03:11:18;100906.75;;;9.89;100.00
2268;BME280;11052;43.338;25.502;2023-05-07T03:13:46;100898.97;;;9.89;100.00
2268;BME280;11052;43.338;25.502;2023-05-07T03:16:15;100898.13;;;9.88;100.00
2268;BME280;11052;43.338;25.502;2023-05-07T03:18:42;100897.34;;;9.83;100.00
2268;BME280;11052;43.338;25.502;2023-05-07T03:21:09;100910.28;;;9.83;100.00
2268;BME280;11052;43.338;25.502;2023-05-07T03:23:38;100912.06;;;9.81;100.00
2268;BME280;11052;43.338;25.502;2023-05-07T03:26:05;100911.22;;;9.79;100.00
2268;BME280;11052;43.338;25.502;2023-05-07T03:28:32;100908.63;;;9.79;100.00
2268;BME280;11052;43.338;25.502;2023-05-07T03:31:00;100911.22;;;9.79;100.00
2268;BME280;11052;43.338;25.502;2023-05-07T03:33:27;100914.66;;;9.79;100.00
2268;BME280;11052;43.338;25.502;2023-05-07T03:35:54;100917.31;;;9.76;100.00
2268;BME280;11052;43.338;25.502;2023-05-07T03:38:22;100917.22;;;9.82;100.00
2268;BME280;11052;43.338;25.502;2023-05-07T03:40:50;100921.47;;;9.86;100.00
2268;BME280;11052;43.338;25.502;2023-05-07T03:43:17;100923.22;;;9.84;100.00
2268;BME280;11052;43.338;25.502;2023-05-07T03:45:44;100917.34;;;9.75;100.00
2268;BME280;11052;43.338;25.502;2023-05-07T03:48:11;100915.56;;;9.77;100.00
2268;BME280;11052;43.338;25.502;2023-05-07T03:50:39;100918.13;;;9.78;100.00
2268;BME280;11052;43.338;25.502;2023-05-07T03:53:06;100921.47;;;9.85;100.00
2268;BME280;11052;43.338;25.502;2023-05-07T03:55:33;100915.47;;;9.83;100.00
2268;BME280;11052;43.338;25.502;2023-05-07T03:58:02;100925.72;;;9.89;100.00
2268;BME280;11052;43.338;25.502;2023-05-07T04:00:29;100930.06;;;9.89;100.00
2268;BME280;11052;43.338;25.502;2023-05-07T04:02:59;100930.19;;;9.81;100.00
2268;BME280;11052;43.338;25.502;2023-05-07T04:05:26;100926.50;;;9.94;100.00
2268;BME280;11052;43.338;25.502;2023-05-07T04:07:53;100924.47;;;10.11;100.00
2268;BME280;11052;43.338;25.502;2023-05-07T04:10:20;100924.16;;;10.30;100.00
2268;BME280;11052;43.338;25.502;2023-05-07T04:12:47;100930.53;;;10.57;100.00
2268;BME280;11052;43.338;25.502;2023-05-07T04:15:16;100938.84;;;10.72;100.00
2268;BME280;11052;43.338;25.502;2023-05-07T04:17:43;100941.38;;;10.75;100.00
2268;BME280;11052;43.338;25.502;2023-05-07T04:20:16;100937.44;;;10.99;100.00
2268;BME280;11052;43.338;25.502;2023-05-07T04:22:43;100941.06;;;11.29;100.00
2268;BME280;11052;43.338;25.502;2023-05-07T04:25:10;100942.88;;;11.63;100.00
2268;BME280;11052;43.338;25.502;2023-05-07T04:27:37;100947.03;;;12.05;100.00
2268;BME280;11052;43.338;25.502;2023-05-07T04:30:06;100950.16;;;12.51;100.00
2268;BME280;11052;43.338;25.502;2023-05-07T04:32:35;100948.47;;;12.79;100.00
2268;BME280;11052;43.338;25.502;2023-05-07T04:35:03;100951.53;;;13.23;100.00
2268;BME280;11052;43.338;25.502;2023-05-07T04:37:31;100953.22;;;13.52;100.00
2268;BME280;11052;43.338;25.502;2023-05-07T04:39:59;100958.19;;;13.59;100.00
2268;BME280;11052;43.338;25.502;2023-05-07T04:42:26;100959.19;;;13.55;100.00
2268;BME280;11052;43.338;25.502;2023-05-07T04:44:53;100955.59;;;13.86;100.00
2268;BME280;11052;43.338;25.502;2023-05-07T04:47:20;100966.03;;;14.10;100.00
2268;BME280;11052;43.338;25.502;2023-05-07T04:49:49;100965.06;;;14.13;100.00
2268;BME280;11052;43.338;25.502;2023-05-07T04:52:16;100966.00;;;14.37;100.00
2268;BME280;11052;43.338;25.502;2023-05-07T04:54:43;100972.50;;;14.73;100.00
2268;BME280;11052;43.338;25.502;2023-05-07T04:57:10;100962.97;;;14.96;100.00
2268;BME280;11052;43.338;25.502;2023-05-07T04:59:38;100965.81;;;15.13;100.00
2268;BME280;11052;43.338;25.502;2023-05-07T05:02:05;100960.91;;;15.27;100.00
2268;BME280;11052;43.338;25.502;2023-05-07T05:04:32;100966.81;;;15.32;100.00
2268;BME280;11052;43.338;25.502;2023-05-07T05:07:00;100963.41;;;15.52;100.00
2268;BME280;11052;43.338;25.502;2023-05-07T05:09:29;100966.09;;;15.72;100.00
2268;BME280;11052;43.338;25.502;2023-05-07T05:11:56;100964.88;;;16.01;100.00
2268;BME280;11052;43.338;25.502;2023-05-07T05:14:23;100974.47;;;16.62;100.00
2268;BME280;11052;43.338;25.502;2023-05-07T05:16:50;100981.75;;;16.94;100.00
2268;BME280;11052;43.338;25.502;2023-05-07T05:19:17;100973.81;;;17.33;100.00
2268;BME280;11052;43.338;25.502;2023-05-07T05:21:44;100976.63;;;17.48;100.00
2268;BME280;11052;43.338;25.502;2023-05-07T05:24:13;100978.16;;;17.71;100.00
2268;BME280;11052;43.338;25.502;2023-05-07T05:26:40;100980.06;;;18.03;100.00
2268;BME280;11052;43.338;25.502;2023-05-07T05:29:07;100980.28;;;18.16;100.00
2268;BME280;11052;43.338;25.502;2023-05-07T05:31:34;100974.59;;;18.08;100.00
2268;BME280;11052;43.338;25.502;2023-05-07T05:34:02;100972.28;;;18.52;100.00
2268;BME280;11052;43.338;25.502;2023-05-07T05:36:29;100970.53;;;18.85;100.00
2268;BME280;11052;43.338;25.502;2023-05-07T05:38:57;100981.00;;;19.03;100.00
2268;BME280;11052;43.338;25.502;2023-05-07T05:41:26;100971.22;;;19.36;100.00
2268;BME280;11052;43.338;25.502;2023-05-07T05:43:53;100981.06;;;19.32;100.00
2268;BME280;11052;43.338;25.502;2023-05-07T05:46:20;100971.56;;;18.98;100.00
2268;BME280;11052;43.338;25.502;2023-05-07T05:48:47;100977.31;;;18.89;96.10
2268;BME280;11052;43.338;25.502;2023-05-07T05:51:14;100974.19;;;19.14;92.44
2268;BME280;11052;43.338;25.502;2023-05-07T05:53:41;100973.59;;;19.41;89.35
2268;BME280;11052;43.338;25.502;2023-05-07T05:56:08;100970.38;;;19.67;87.55
2268;BME280;11052;43.338;25.502;2023-05-07T05:58:37;100970.44;;;19.50;85.14
2268;BME280;11052;43.338;25.502;2023-05-07T06:01:04;100973.94;;;19.96;89.12
2268;BME280;11052;43.338;25.502;2023-05-07T06:03:31;100970.81;;;20.34;80.96
2268;BME280;11052;43.338;25.502;2023-05-07T06:05:59;100969.75;;;20.52;78.79
2268;BME280;11052;43.338;25.502;2023-05-07T06:08:29;100973.91;;;20.70;79.07
2268;BME280;11052;43.338;25.502;2023-05-07T06:10:56;100972.41;;;20.66;75.03
2268;BME280;11052;43.338;25.502;2023-05-07T06:13:23;100972.97;;;20.71;77.40
2268;BME280;11052;43.338;25.502;2023-05-07T06:15:52;100968.72;;;20.69;76.28
2268;BME280;11052;43.338;25.502;2023-05-07T06:18:19;100967.50;;;20.46;68.00
2268;BME280;11052;43.338;25.502;2023-05-07T06:20:46;100963.09;;;20.60;69.68
2268;BME280;11052;43.338;25.502;2023-05-07T06:23:14;100968.97;;;21.07;67.45
2268;BME280;11052;43.338;25.502;2023-05-07T06:25:41;100965.00;;;21.00;66.61
2268;BME280;11052;43.338;25.502;2023-05-07T06:28:08;100972.19;;;20.83;61.87
2268;BME280;11052;43.338;25.502;2023-05-07T06:30:36;100966.66;;;20.59;59.82
2268;BME280;11052;43.338;25.502;2023-05-07T06:33:05;100973.25;;;20.67;63.77
2268;BME280;11052;43.338;25.502;2023-05-07T06:35:32;100974.13;;;21.37;62.28
2268;BME280;11052;43.338;25.502;2023-05-07T06:37:59;100975.50;;;21.42;55.30
2268;BME280;11052;43.338;25.502;2023-05-07T06:40:27;100968.66;;;21.11;56.76
2268;BME280;11052;43.338;25.502;2023-05-07T06:42:54;100971.94;;;21.43;58.91
2268;BME280;11052;43.338;25.502;2023-05-07T06:45:21;100972.03;;;21.42;57.24
2268;BME280;11052;43.338;25.502;2023-05-07T06:47:48;100970.66;;;21.22;61.01
2268;BME280;11052;43.338;25.502;2023-05-07T06:50:16;100967.69;;;21.41;58.02
2268;BME280;11052;43.338;25.502;2023-05-07T06:52:44;100966.84;;;21.40;56.79
2268;BME280;11052;43.338;25.502;2023-05-07T06:55:11;100961.88;;;21.36;57.91
2268;BME280;11052;43.338;25.502;2023-05-07T06:57:38;100967.25;;;21.34;55.17
2268;BME280;11052;43.338;25.502;2023-05-07T07:00:06;100980.38;;;21.48;56.31
2268;BME280;11052;43.338;25.502;2023-05-07T07:02:34;100973.06;;;22.06;54.50
2268;BME280;11052;43.338;25.502;2023-05-07T07:05:01;100970.28;;;22.47;54.72
2268;BME280;11052;43.338;25.502;2023-05-07T07:07:30;100965.06;;;22.20;55.03
2268;BME280;11052;43.338;25.502;2023-05-07T07:09:57;100971.41;;;22.17;55.82
2268;BME280;11052;43.338;25.502;2023-05-07T07:12:24;100972.03;;;22.08;55.26
2268;BME280;11052;43.338;25.502;2023-05-07T07:14:51;100976.50;;;22.33;53.67
2268;BME280;11052;43.338;25.502;2023-05-07T07:17:18;100960.00;;;22.42;54.52
2268;BME280;11052;43.338;25.502;2023-05-07T07:19:45;100965.69;;;22.74;53.52
2268;BME280;11052;43.338;25.502;2023-05-07T07:22:12;100968.44;;;22.85;53.07
2268;BME280;11052;43.338;25.502;2023-05-07T07:24:41;100963.09;;;22.49;53.52
2268;BME280;11052;43.338;25.502;2023-05-07T07:27:08;100974.59;;;22.22;52.76
2268;BME280;11052;43.338;25.502;2023-05-07T07:29:35;100963.31;;;21.93;53.78
2268;BME280;11052;43.338;25.502;2023-05-07T07:32:02;100968.00;;;21.76;53.31
2268;BME280;11052;43.338;25.502;2023-05-07T07:34:29;100959.03;;;22.05;54.69
2268;BME280;11052;43.338;25.502;2023-05-07T07:36:56;100962.31;;;21.82;52.81
2268;BME280;11052;43.338;25.502;2023-05-07T07:39:23;100962.91;;;22.00;53.32
2268;BME280;11052;43.338;25.502;2023-05-07T07:41:52;100960.28;;;21.73;50.05
2268;BME280;11052;43.338;25.502;2023-05-07T07:44:19;100970.25;;;22.21;51.64
2268;BME280;11052;43.338;25.502;2023-05-07T07:46:46;100966.84;;;22.57;50.84
2268;BME280;11052;43.338;25.502;2023-05-07T07:49:14;100970.97;;;22.74;50.12
2268;BME280;11052;43.338;25.502;2023-05-07T07:51:42;100969.09;;;22.89;48.69
2268;BME280;11052;43.338;25.502;2023-05-07T07:54:10;100970.88;;;22.76;49.13
2268;BME280;11052;43.338;25.502;2023-05-07T07:56:37;100966.44;;;22.89;49.66
2268;BME280;11052;43.338;25.502;2023-05-07T07:59:09;100965.25;;;23.06;49.84
2268;BME280;11052;43.338;25.502;2023-05-07T08:01:36;100962.94;;;22.88;50.73
2268;BME280;11052;43.338;25.502;2023-05-07T08:04:03;100963.50;;;22.43;49.35
2268;BME280;11052;43.338;25.502;2023-05-07T08:06:31;100954.94;;;22.39;49.49
2268;BME280;11052;43.338;25.502;2023-05-07T08:08:58;100945.00;;;22.30;50.30
2268;BME280;11052;43.338;25.502;2023-05-07T08:11:25;100950.38;;;22.79;52.07
2268;BME280;11052;43.338;25.502;2023-05-07T08:13:53;100941.91;;;23.24;50.44
2268;BME280;11052;43.338;25.502;2023-05-07T08:16:22;100942.53;;;23.27;48.53
2268;BME280;11052;43.338;25.502;2023-05-07T08:18:49;100940.22;;;23.23;48.50
2268;BME280;11052;43.338;25.502;2023-05-07T08:21:17;100939.97;;;23.02;47.82
2268;BME280;11052;43.338;25.502;2023-05-07T08:23:44;100935.72;;;23.36;47.67
2268;BME280;11052;43.338;25.502;2023-05-07T08:26:11;100937.38;;;23.84;48.94
2268;BME280;11052;43.338;25.502;2023-05-07T08:28:38;100931.09;;;23.74;44.70
2268;BME280;11052;43.338;25.502;2023-05-07T08:31:05;100935.03;;;23.21;44.96
2268;BME280;11052;43.338;25.502;2023-05-07T08:33:34;100933.00;;;22.88;46.14
2268;BME280;11052;43.338;25.502;2023-05-07T08:36:01;100934.34;;;23.06;46.47
2268;BME280;11052;43.338;25.502;2023-05-07T08:38:28;100933.84;;;23.49;45.20
2268;BME280;11052;43.338;25.502;2023-05-07T08:40:55;100933.19;;;23.58;46.26
2268;BME280;11052;43.338;25.502;2023-05-07T08:43:26;100929.66;;;23.81;47.94
2268;BME280;11052;43.338;25.502;2023-05-07T08:45:54;100938.06;;;24.10;46.53
2268;BME280;11052;43.338;25.502;2023-05-07T08:48:25;100935.38;;;23.99;45.04
2268;BME280;11052;43.338;25.502;2023-05-07T08:50:54;100941.78;;;24.08;44.84
2268;BME280;11052;43.338;25.502;2023-05-07T08:53:21;100932.91;;;24.31;45.01
2268;BME280;11052;43.338;25.502;2023-05-07T08:55:48;100943.53;;;24.42;45.44
2268;BME280;11052;43.338;25.502;2023-05-07T08:58:15;100925.56;;;24.35;44.65
2268;BME280;11052;43.338;25.502;2023-05-07T09:00:42;100920.03;;;24.71;43.86
2268;BME280;11052;43.338;25.502;2023-05-07T09:03:10;100922.44;;;25.08;46.34
2268;BME280;11052;43.338;25.502;2023-05-07T09:05:38;100918.34;;;24.81;44.45
2268;BME280;11052;43.338;25.502;2023-05-07T09:08:07;100922.09;;;24.57;43.98
2268;BME280;11052;43.338;25.502;2023-05-07T09:10:34;100914.72;;;24.27;45.75
2268;BME280;11052;43.338;25.502;2023-05-07T09:13:02;100915.09;;;24.56;45.07
2268;BME280;11052;43.338;25.502;2023-05-07T09:15:30;100917.28;;;24.62;44.08
2268;BME280;11052;43.338;25.502;2023-05-07T09:17:59;100910.16;;;24.40;45.78
2268;BME280;11052;43.338;25.502;2023-05-07T09:20:30;100917.50;;;24.36;44.42
2268;BME280;11052;43.338;25.502;2023-05-07T09:22:57;100921.50;;;24.42;44.03
2268;BME280;11052;43.338;25.502;2023-05-07T09:25:30;100906.66;;;24.84;43.17
2268;BME280;11052;43.338;25.502;2023-05-07T09:27:57;100910.75;;;24.66;43.98
2268;BME280;11052;43.338;25.502;2023-05-07T09:30:28;100898.72;;;24.62;43.60
2268;BME280;11052;43.338;25.502;2023-05-07T09:32:56;100906.91;;;24.81;44.28
2268;BME280;11052;43.338;25.502;2023-05-07T09:35:23;100894.53;;;25.13;42.65
2268;BME280;11052;43.338;25.502;2023-05-07T09:37:57;100892.53;;;25.38;41.92
2268;BME280;11052;43.338;25.502;2023-05-07T09:40:26;100896.09;;;25.80;42.54
2268;BME280;11052;43.338;25.502;2023-05-07T09:42:55;100892.41;;;25.39;42.40
2268;BME280;11052;43.338;25.502;2023-05-07T09:45:23;100887.47;;;24.92;42.73
2268;BME280;11052;43.338;25.502;2023-05-07T09:47:54;100892.94;;;25.22;44.29
2268;BME280;11052;43.338;25.502;2023-05-07T09:50:26;100886.16;;;25.61;43.24
2268;BME280;11052;43.338;25.502;2023-05-07T09:52:54;100879.00;;;25.94;42.37
2268;BME280;11052;43.338;25.502;2023-05-07T09:55:21;100874.06;;;25.89;41.94
2268;BME280;11052;43.338;25.502;2023-05-07T09:57:50;100878.72;;;26.27;40.35
2268;BME280;11052;43.338;25.502;2023-05-07T10:00:20;100870.78;;;25.76;42.48
2268;BME280;11052;43.338;25.502;2023-05-07T10:02:49;100872.50;;;25.34;42.81
2268;BME280;11052;43.338;25.502;2023-05-07T10:05:18;100873.50;;;25.54;42.12
2268;BME280;11052;43.338;25.502;2023-05-07T10:07:46;100881.28;;;25.45;41.00
2268;BME280;11052;43.338;25.502;2023-05-07T10:10:14;100876.91;;;25.24;40.29
2268;BME280;11052;43.338;25.502;2023-05-07T10:12:41;100862.09;;;25.42;43.51
2268;BME280;11052;43.338;25.502;2023-05-07T10:15:09;100861.91;;;25.34;41.86
2268;BME280;11052;43.338;25.502;2023-05-07T10:17:39;100862.25;;;25.61;41.88
2268;BME280;11052;43.338;25.502;2023-05-07T10:20:07;100863.28;;;26.11;40.78
2268;BME280;11052;43.338;25.502;2023-05-07T10:22:38;100857.56;;;25.65;41.07
2268;BME280;11052;43.338;25.502;2023-05-07T10:25:14;100852.28;;;25.54;39.92
2268;BME280;11052;43.338;25.502;2023-05-07T10:27:43;100849.50;;;25.55;40.23
2268;BME280;11052;43.338;25.502;2023-05-07T10:30:19;100839.34;;;25.28;42.25
2268;BME280;11052;43.338;25.502;2023-05-07T10:32:55;100850.34;;;25.56;40.57
2268;BME280;11052;43.338;25.502;2023-05-07T10:35:32;100844.34;;;25.42;40.43
2268;BME280;11052;43.338;25.502;2023-05-07T10:38:03;100832.56;;;25.67;39.59
2268;BME280;11052;43.338;25.502;2023-05-07T10:40:30;100832.34;;;26.31;41.59
2268;BME280;11052;43.338;25.502;2023-05-07T10:42:58;100829.38;;;26.74;39.74
2268;BME280;11052;43.338;25.502;2023-05-07T10:45:26;100832.31;;;26.01;40.30
2268;BME280;11052;43.338;25.502;2023-05-07T10:48:13;100827.44;;;25.75;40.78
2268;BME280;11052;43.338;25.502;2023-05-07T10:50:41;100830.53;;;26.11;41.34
2268;BME280;11052;43.338;25.502;2023-05-07T10:53:22;100826.94;;;26.22;40.47
2268;BME280;11052;43.338;25.502;2023-05-07T10:56:23;100820.44;;;25.74;39.09
2268;BME280;11052;43.338;25.502;2023-05-07T10:58:51;100827.13;;;25.69;40.06
2268;BME280;11052;43.338;25.502;2023-05-07T11:01:49;100835.34;;;25.87;39.10
2268;BME280;11052;43.338;25.502;2023-05-07T11:04:18;100827.31;;;25.77;39.14
2268;BME280;11052;43.338;25.502;2023-05-07T11:07:24;100826.88;;;25.61;39.84
2268;BME280;11052;43.338;25.502;2023-05-07T11:09:59;100820.81;;;25.91;41.42
2268;BME280;11052;43.338;25.502;2023-05-07T11:12:52;100822.28;;;26.14;39.35
2268;BME280;11052;43.338;25.502;2023-05-07T11:15:47;100816.16;;;26.44;39.00
2268;BME280;11052;43.338;25.502;2023-05-07T11:18:16;100806.94;;;26.58;39.20
2268;BME280;11052;43.338;25.502;2023-05-07T11:20:59;100803.03;;;26.62;38.76
2268;BME280;11052;43.338;25.502;2023-05-07T11:26:31;100813.56;;;26.73;38.91
2268;BME280;11052;43.338;25.502;2023-05-07T11:29:10;100800.66;;;26.68;38.13
2268;BME280;11052;43.338;25.502;2023-05-07T11:31:38;100807.84;;;26.97;39.73
2268;BME280;11052;43.338;25.502;2023-05-07T11:34:05;100806.13;;;26.67;38.57
2268;BME280;11052;43.338;25.502;2023-05-07T11:36:35;100803.06;;;26.81;39.92
2268;BME280;11052;43.338;25.502;2023-05-07T11:39:23;100795.44;;;26.48;39.00
2268;BME280;11052;43.338;25.502;2023-05-07T11:41:51;100796.31;;;26.27;38.83
2268;BME280;11052;43.338;25.502;2023-05-07T11:44:18;100792.75;;;26.07;38.34
2268;BME280;11052;43.338;25.502;2023-05-07T11:46:45;100785.75;;;25.97;41.30
2268;BME280;11052;43.338;25.502;2023-05-07T11:49:12;100785.75;;;25.55;40.74
2268;BME280;11052;43.338;25.502;2023-05-07T11:51:41;100782.09;;;25.67;39.75
2268;BME280;11052;43.338;25.502;2023-05-07T11:54:08;100775.72;;;25.59;39.69
2268;BME280;11052;43.338;25.502;2023-05-07T11:56:37;100778.34;;;25.70;39.47
2268;BME280;11052;43.338;25.502;2023-05-07T11:59:04;100770.53;;;26.08;39.80
2268;BME280;11052;43.338;25.502;2023-05-07T12:01:32;100768.19;;;26.25;39.03
2268;BME280;11052;43.338;25.502;2023-05-07T12:04:03;100759.47;;;26.43;38.34
2268;BME280;11052;43.338;25.502;2023-05-07T12:06:30;100762.97;;;26.13;37.86
2268;BME280;11052;43.338;25.502;2023-05-07T12:08:59;100760.94;;;26.27;38.68
2268;BME280;11052;43.338;25.502;2023-05-07T12:11:26;100754.16;;;26.13;37.58
2268;BME280;11052;43.338;25.502;2023-05-07T12:13:54;100750.88;;;26.30;38.61
2268;BME280;11052;43.338;25.502;2023-05-07T12:16:21;100747.19;;;26.22;38.79
2268;BME280;11052;43.338;25.502;2023-05-07T12:18:49;100746.72;;;26.37;39.13
2268;BME280;11052;43.338;25.502;2023-05-07T12:21:18;100741.56;;;26.45;39.87
2268;BME280;11052;43.338;25.502;2023-05-07T12:23:45;100738.47;;;26.00;38.66
2268;BME280;11052;43.338;25.502;2023-05-07T12:26:15;100740.22;;;26.21;39.35
2268;BME280;11052;43.338;25.502;2023-05-07T12:28:42;100743.16;;;26.27;38.32
2268;BME280;11052;43.338;25.502;2023-05-07T12:31:09;100736.88;;;25.78;39.42
2268;BME280;11052;43.338;25.502;2023-05-07T12:33:36;100732.34;;;25.69;40.30
2268;BME280;11052;43.338;25.502;2023-05-07T12:36:05;100731.94;;;25.74;40.73
2268;BME280;11052;43.338;25.502;2023-05-07T12:38:38;100732.44;;;25.89;39.58
2268;BME280;11052;43.338;25.502;2023-05-07T12:41:07;100739.53;;;25.58;39.46
2268;BME280;11052;43.338;25.502;2023-05-07T12:43:36;100739.53;;;25.37;38.17
2268;BME280;11052;43.338;25.502;2023-05-07T12:46:06;100731.38;;;25.49;40.05
2268;BME280;11052;43.338;25.502;2023-05-07T12:48:35;100725.84;;;25.83;39.40
2268;BME280;11052;43.338;25.502;2023-05-07T12:51:03;100725.22;;;26.20;39.69
2268;BME280;11052;43.338;25.502;2023-05-07T12:53:32;100721.19;;;25.75;38.70
2268;BME280;11052;43.338;25.502;2023-05-07T12:55:59;100724.16;;;25.61;38.37